Latest Weather Observations for Paraburdoo

IDW60801

Issued at 9:35 pm WST Friday 28 November 2014 (issued every 30 minutes, with the page automatically refreshed every 10 minutes)

About weather observations | Map of weather stations | Latest weather observations for WA | Other Formats
Station Details ID: 007185 Name: PARABURDOO AERO Lat: -23.17 Lon: 117.75 Height: 423.7 m
Data from the previous 72 hours. | See also: Recent months at Paraburdoo
Date/Time
WST
Temp
°C
App
Temp
°C
Dew
Point
Rel
Hum
%
Delta-T
°C
Wind Press
QNH
hPa
Press
MSL
hPa
Rain
since 9 am
mm
Dir
 
Spd
km/h
Gust
km/h
Spd
kts
Gust
kts
28/09:30pm 30.9 26.1 4.6 19 13.9 WSW 19 20 10 11 1011.6 1008.4 0.0
28/09:04pm 31.3 26.4 4.9 19 14.1 W 20 24 11 13 1011.5 1008.3 0.0
28/09:00pm 31.5 26.4 4.3 18 14.4 W 20 24 11 13 1011.4 1008.2 0.0
28/08:30pm 32.0 26.9 3.9 17 14.8 W 20 24 11 13 1011.2 1008.0 0.0
28/08:00pm 32.4 27.9 4.2 17 15.0 W 17 20 9 11 1010.9 1007.8 0.0
28/07:30pm 33.3 28.4 5.0 17 15.3 W 20 28 11 15 1010.6 1007.5 0.0
28/07:00pm 33.9 27.9 5.4 17 15.6 W 26 33 14 18 1010.2 1007.1 0.0
28/06:30pm 34.7 28.5 6.1 17 15.8 W 28 37 15 20 1009.9 1006.7 0.0
28/06:00pm 35.6 28.4 5.9 16 16.5 W 33 44 18 24 1009.4 1006.2 0.0
28/05:50pm 35.7 29.3 5.1 15 16.8 W 28 46 15 25 1009.3 1006.1 0.0
28/05:30pm 36.1 28.8 5.4 15 16.9 W 33 46 18 25 1009.0 1005.8 0.0
28/05:14pm 36.6 30.1 4.8 14 17.4 W 28 48 15 26 1008.8 1005.6 0.0
28/05:00pm 36.8 29.6 4.9 14 17.5 W 32 44 17 24 1008.8 1005.6 0.0
28/04:43pm 36.9 30.3 6.0 15 17.3 W 30 48 16 26 1008.7 1005.5 0.0
28/04:30pm 37.4 30.5 6.4 15 17.5 W 32 48 17 26 1008.5 1005.4 0.0
28/04:00pm 37.6 31.7 7.5 16 17.3 W 28 43 15 23 1008.5 1005.4 0.0
28/03:30pm 38.0 31.6 8.7 17 17.1 W 32 52 17 28 1008.7 1005.5 0.0
28/03:28pm 37.7 32.2 9.3 18 16.7 W 28 46 15 25 1008.5 1005.4 0.0
28/03:00pm 37.3 31.2 8.2 17 16.9 WNW 30 35 16 19 1008.9 1005.7 0.0
28/02:30pm 36.8 32.5 9.4 19 16.1 W 22 43 12 23 1009.3 1006.1 0.0
28/02:18pm 38.0 32.4 8.7 17 17.1 W 28 48 15 26 1009.3 1006.1 0.0
28/02:00pm 37.8 33.0 10.2 19 16.5 W 26 41 14 22 1009.5 1006.3 0.0
28/01:30pm 36.4 32.4 10.6 21 15.4 W 22 28 12 15 1010.1 1006.9 0.0
28/01:00pm 35.5 31.0 12.5 25 14.1 W 28 37 15 20 1010.6 1007.5 0.0
28/12:30pm 35.0 33.2 13.2 27 13.4 NW 15 24 8 13 1011.2 1008.0 0.0
28/12:00pm 33.8 32.7 14.3 31 12.2 WSW 13 20 7 11 1011.6 1008.4 0.0
28/11:30am 32.6 32.2 14.2 32 11.4 W 9 19 5 10 1012.2 1009.0 0.0
28/11:00am 32.2 29.8 13.9 33 11.3 WNW 19 26 10 14 1012.4 1009.3 0.0
28/10:30am 31.0 30.9 15.0 38 10.0 WNW 9 22 5 12 1012.8 1009.7 0.0
28/10:00am 29.9 30.3 15.2 41 9.2 W 7 19 4 10 1013.1 1010.0 0.0
28/09:30am 29.2 29.2 15.3 42 8.7 W 9 17 5 9 1013.6 1010.4 0.0
28/09:00am 28.1 28.7 15.7 46 7.7 WNW 7 11 4 6 1013.9 1010.7 11.6
28/08:30am 27.3 28.6 17.2 54 6.4 NW 6 11 3 6 1013.9 1010.7 11.6
28/08:00am 26.4 27.1 16.0 52 6.5 W 7 11 4 6 1013.7 1010.5 11.6
28/07:30am 25.7 27.0 17.6 61 5.2 WSW 7 11 4 6 1013.7 1010.5 11.6
28/07:00am 24.9 27.2 17.6 64 4.6 WSW 2 7 1 4 1013.3 1010.2 11.6
28/06:30am 23.5 27.1 22.3 93 0.8 NE 7 7 4 4 1013.2 1010.1 11.6
28/06:00am 22.1 25.6 21.9 99 0.1 NE 6 7 3 4 1013.0 1009.9 11.6
28/05:30am 20.8 24.0 20.6 99 0.1 NE 4 7 2 4 1012.9 1009.8 11.6
28/05:00am 20.9 23.6 20.7 99 0.1 ENE 7 7 4 4 1012.8 1009.7 11.6
28/04:30am 21.5 24.2 21.3 99 0.1 NNE 9 9 5 5 1012.5 1009.4 11.6
28/04:00am 21.3 24.2 21.1 99 0.1 NE 7 9 4 5 1012.4 1009.3 11.6
28/03:30am 21.5 24.7 21.3 99 0.1 NE 6 9 3 5 1012.3 1009.1 11.6
28/03:00am 21.6 24.9 21.4 99 0.1 SE 6 7 3 4 1012.3 1009.1 11.6
28/02:30am 23.1 27.2 22.9 99 0.1 SE 6 7 3 4 1012.3 1009.1 11.6
28/02:00am 22.3 26.3 22.0 98 0.2 NNE 4 7 2 4 1012.2 1009.0 11.6
28/01:30am 22.1 25.1 21.9 99 0.1 NE 9 11 5 6 1012.3 1009.1 11.6
28/01:00am 22.9 25.9 22.6 98 0.2 NNE 11 13 6 7 1012.5 1009.4 11.6
28/12:30am 23.2 25.7 22.4 95 0.5 NNE 13 15 7 8 1012.8 1009.7 11.6
28/12:00am 23.6 25.3 21.7 89 1.3 NE 15 19 8 10 1013.1 1010.0 11.6
 
Date/Time
WST
Temp
°C
App
Temp
°C
Dew
Point
Rel
Hum
%
Delta-T
°C
Wind Press
QNH
hPa
Press
MSL
hPa
Rain
since 9 am
mm
Dir
 
Spd
km/h
Gust
km/h
Spd
kts
Gust
kts
27/11:30pm 23.6 25.5 22.0 91 1.1 NE 15 17 8 9 1013.2 1010.1 11.6
27/11:00pm 23.6 26.1 21.7 89 1.3 NE 11 15 6 8 1013.3 1010.2 11.6
27/10:30pm 24.3 25.5 20.6 80 2.5 NE 15 20 8 11 1013.3 1010.2 11.6
27/10:00pm 24.3 26.0 21.0 82 2.2 NE 13 20 7 11 1013.2 1010.1 11.6
27/09:30pm 24.2 25.8 21.5 85 1.8 ENE 15 22 8 12 1012.9 1009.8 11.6
27/09:00pm 24.1 25.6 21.2 84 1.9 NE 15 20 8 11 1012.4 1009.3 11.6
27/08:30pm 24.4 25.4 20.3 78 2.7 ENE 15 20 8 11 1012.2 1009.0 11.6
27/08:00pm 24.0 25.1 22.4 91 1.1 ENE 20 32 11 17 1011.9 1008.7 11.6
27/07:30pm 23.9 25.2 23.4 97 0.3 NE 22 32 12 17 1011.7 1008.5 11.6
27/07:00pm 23.7 26.4 23.4 98 0.2 NE 15 19 8 10 1010.8 1007.7 11.6
27/06:30pm 23.7 23.5 21.2 86 1.7 E 24 32 13 17 1010.1 1006.9 11.6
27/06:08pm 23.1 24.8 21.7 92 0.9 NNE 15 22 8 12 1011.5 1008.3 11.4
27/06:00pm 22.9 24.9 22.2 96 0.5 N 15 22 8 12 1010.7 1007.6 11.2
27/05:46pm 23.2 22.2 17.9 72 3.4 NW 20 32 11 17 1011.2 1008.0 7.2
27/05:39pm 28.3 29.3 17.8 53 6.8 S 9 17 5 9 1010.6 1007.5 1.0
27/05:30pm 29.4 27.6 15.9 44 8.5 SE 20 24 11 13 1009.6 1006.4 0.0
27/05:00pm 27.3 27.0 18.3 58 5.8 N 17 32 9 17 1009.1 1005.9 0.0
27/04:30pm 30.6 26.0 13.4 35 10.5 N 30 41 16 22 1009.1 1005.9 0.0
27/04:23pm 29.7 24.8 14.3 39 9.5 N 33 52 18 28 1009.0 1005.8 0.0
27/04:16pm 30.3 23.5 13.1 34 10.4 NNW 41 52 22 28 1009.4 1006.2 0.0
27/04:00pm 31.1 29.6 14.3 36 10.4 S 15 26 8 14 1008.9 1005.7 0.0
27/03:30pm 31.0 28.5 16.2 41 9.4 WSW 24 33 13 18 1008.8 1005.6 0.0
27/03:24pm 31.2 29.1 18.9 48 8.1 W 28 33 15 18 1008.3 1005.2 0.0
27/03:00pm 36.6 33.3 12.7 23 14.7 NNW 22 30 12 16 1008.2 1005.1 0.0
27/02:30pm 37.2 32.9 13.2 23 14.9 WNW 28 39 15 21 1008.9 1005.7 0.0
27/02:00pm 38.1 35.7 12.7 22 15.8 NNW 17 33 9 18 1009.1 1005.9 0.0
27/01:30pm 35.4 34.4 13.5 26 13.6 NE 11 22 6 12 1009.6 1006.4 0.0
27/01:00pm 35.4 34.8 13.5 26 13.6 N 9 15 5 8 1010.2 1007.1 0.0
27/12:30pm 34.5 32.9 13.9 29 12.8 NNW 15 28 8 15 1010.6 1007.5 0.0
27/12:00pm 34.9 33.0 14.2 28 13.0 E 17 26 9 14 1010.8 1007.7 0.0
27/11:30am 34.8 32.1 14.7 30 12.7 NNE 22 30 12 16 1011.4 1008.2 0.0
27/11:00am 34.0 31.6 14.5 31 12.2 N 20 24 11 13 1011.7 1008.5 0.0
27/10:30am 33.3 31.4 15.3 34 11.4 NNE 19 39 10 21 1011.9 1008.7 0.0
27/10:00am 31.5 29.5 15.0 36 10.3 NE 19 28 10 15 1012.4 1009.3 0.0
27/09:30am 30.2 28.8 15.5 41 9.2 NE 17 28 9 15 1012.8 1009.7 0.0
27/09:00am 29.2 27.6 16.4 46 8.1 ENE 20 26 11 14 1013.1 1010.0 1.2
27/08:30am 27.4 25.8 16.4 51 6.9 ENE 20 32 11 17 1013.2 1010.1 1.2
27/08:00am 26.1 23.9 16.9 57 5.8 ENE 24 35 13 19 1013.2 1010.1 1.2
27/07:30am 25.0 21.3 17.0 61 5.0 ENE 32 43 17 23 1013.1 1010.0 1.2
27/07:00am 23.8 21.4 17.3 67 4.1 ENE 26 37 14 20 1013.0 1009.9 1.2
27/06:30am 23.2 21.3 16.7 67 4.1 ENE 22 30 12 16 1013.0 1009.9 1.2
27/06:00am 22.4 21.1 16.9 71 3.4 ENE 19 26 10 14 1012.8 1009.7 1.2
27/05:30am 21.6 20.5 17.2 76 2.7 ENE 19 26 10 14 1012.5 1009.4 1.2
27/05:00am 21.6 20.2 17.0 75 2.9 ENE 20 30 11 16 1012.4 1009.3 1.2
27/04:30am 21.9 20.0 16.6 72 3.3 ENE 22 28 12 15 1012.2 1009.0 1.2
27/04:00am 22.0 19.9 16.3 70 3.5 ENE 22 28 12 15 1012.2 1009.0 1.2
27/03:30am 22.3 19.7 15.9 67 3.9 ENE 24 32 13 17 1012.3 1009.1 1.2
27/03:00am 22.8 19.3 15.6 64 4.4 E 28 37 15 20 1012.2 1009.0 1.2
27/02:30am 22.5 19.9 15.8 66 4.1 E 24 32 13 17 1012.1 1008.9 1.2
27/02:00am 22.4 22.0 16.2 68 3.8 ENE 13 22 7 12 1012.3 1009.1 1.0
27/01:30am 22.3 21.1 17.0 72 3.3 E 19 28 10 15 1012.2 1009.0 1.0
27/01:00am 22.6 22.2 17.1 71 3.4 ENE 15 20 8 11 1012.2 1009.0 1.0
27/12:30am 22.9 22.7 18.4 76 2.9 E 17 20 9 11 1012.4 1009.3 1.0
27/12:00am 22.6 22.4 18.6 78 2.6 E 17 20 9 11 1012.6 1009.5 1.0
 
Date/Time
WST
Temp
°C
App
Temp
°C
Dew
Point
Rel
Hum
%
Delta-T
°C
Wind Press
QNH
hPa
Press
MSL
hPa
Rain
since 9 am
mm
Dir
 
Spd
km/h
Gust
km/h
Spd
kts
Gust
kts
26/11:30pm 22.7 23.4 18.0 75 3.0 E 11 17 6 9 1012.8 1009.7 1.0
26/11:00pm 22.9 25.4 19.1 79 2.5 NE 4 7 2 4 1013.0 1009.9 1.0
26/10:30pm 22.8 24.1 19.2 80 2.3 ENE 11 13 6 7 1012.8 1009.7 1.0
26/10:00pm 22.7 22.3 18.0 75 3.0 ENE 17 28 9 15 1012.7 1009.6 1.0
26/09:30pm 23.0 22.0 17.9 73 3.2 ENE 20 30 11 16 1012.6 1009.5 1.0
26/09:00pm 23.6 22.2 16.9 66 4.2 E 20 37 11 20 1012.4 1009.3 1.0
26/08:30pm 23.4 21.6 17.8 71 3.6 E 24 43 13 23 1011.6 1008.4 1.0
26/08:02pm 24.5 20.5 16.7 61 4.9 E 33 52 18 28 1010.8 1007.7 1.0
26/08:00pm 24.5 20.5 16.7 61 4.9 E 33 48 18 26 1010.7 1007.6 1.0
26/07:50pm 24.6 20.0 17.1 63 4.7 E 37 56 20 30 1010.0 1006.8 1.0
26/07:30pm 24.7 20.9 18.2 67 4.2 E 35 50 19 27 1009.9 1006.7 1.0
26/07:16pm 26.1 22.6 16.6 55 6.0 E 30 48 16 26 1009.9 1006.7 1.0
26/07:00pm 26.2 25.9 16.4 54 6.2 ESE 13 39 7 21 1009.4 1006.2 1.0
26/06:30pm 26.9 24.7 16.8 54 6.4 E 24 28 13 15 1009.6 1006.4 1.0
26/06:02pm 26.0 24.8 18.4 63 4.9 SSE 22 35 12 19 1008.2 1005.1 1.0
26/06:00pm 26.0 25.4 18.9 65 4.6 SSE 20 35 11 19 1008.3 1005.2 1.0
26/05:43pm 26.5 25.3 18.4 61 5.2 E 22 30 12 16 1007.9 1004.7 1.0
26/05:30pm 29.7 25.6 15.0 40 9.1 E 30 41 16 22 1007.5 1004.3 0.2
26/05:00pm 31.2 27.0 13.5 34 10.8 E 28 39 15 21 1006.9 1003.7 0.2
26/04:30pm 31.5 27.5 14.2 35 10.7 E 28 37 15 20 1007.0 1003.8 0.2
26/04:00pm 29.6 25.1 15.3 41 8.9 E 33 52 18 28 1007.1 1003.9 0.0
26/03:56pm 29.2 24.7 15.3 42 8.7 ESE 33 52 18 28 1007.1 1003.9 0.0
26/03:30pm 30.4 25.6 14.1 37 10.0 ESE 32 44 17 24 1007.1 1003.9 0.0
26/03:22pm 30.9 26.5 14.1 36 10.3 ESE 30 44 16 24 1007.0 1003.8 0.0
26/03:00pm 35.1 32.3 12.7 26 13.8 S 19 24 10 13 1007.0 1003.8 0.0
26/02:30pm 36.8 33.8 9.4 19 16.1 ENE 15 22 8 12 1007.5 1004.3 0.0
26/02:00pm 35.2 33.2 10.3 22 14.8 ESE 11 22 6 12 1008.0 1004.8 0.0
26/01:30pm 36.9 34.3 9.5 19 16.1 NNE 13 24 7 13 1008.4 1005.3 0.0
26/01:00pm 36.0 33.4 9.5 20 15.6 NNE 13 19 7 10 1008.7 1005.5 0.0
26/12:30pm 36.7 33.3 9.3 19 16.1 NNE 17 26 9 14 1009.2 1006.0 0.0
26/12:00pm 36.8 33.1 10.2 20 15.8 N 20 33 11 18 1009.7 1006.5 0.0
26/11:30am 37.3 33.9 10.6 20 16.0 NNE 19 35 10 19 1010.4 1007.3 0.0
26/11:00am 34.9 31.3 10.7 23 14.4 ENE 20 30 11 16 1010.9 1007.8 0.0
26/10:30am 35.9 32.2 11.5 23 14.7 NNE 22 30 12 16 1011.4 1008.2 0.0
26/10:00am 33.4 30.0 11.3 26 13.2 N 20 28 11 15 1011.7 1008.5 0.0
26/09:30am 33.7 29.2 11.5 26 13.3 NE 26 37 14 20 1012.0 1008.8 0.0
26/09:00am 32.5 27.9 12.2 29 12.2 ENE 28 39 15 21 1012.2 1009.0 0.2
26/08:30am 30.8 26.4 11.7 31 11.3 NE 26 33 14 18 1012.4 1009.3 0.2
26/08:00am 30.0 25.7 12.0 33 10.7 NE 26 37 14 20 1012.6 1009.5 0.2
26/07:30am 29.2 24.0 11.7 34 10.3 NE 30 41 16 22 1012.6 1009.5 0.2
26/07:00am 26.8 23.4 12.4 40 8.5 ENE 22 28 12 15 1012.7 1009.6 0.2
26/06:30am 26.1 23.0 12.2 42 8.1 ENE 20 28 11 15 1012.6 1009.5 0.2
26/06:00am 25.7 22.9 12.5 44 7.8 NE 19 26 10 14 1012.6 1009.5 0.2
26/05:30am 25.1 21.9 13.0 47 7.2 ENE 22 30 12 16 1011.7 1008.5 0.2
26/05:00am 25.1 21.5 13.0 47 7.2 ENE 24 33 13 18 1011.8 1008.6 0.2
26/04:30am 25.2 21.1 12.8 46 7.3 ENE 26 33 14 18 1011.8 1008.6 0.2
26/04:00am 25.4 21.3 12.6 45 7.5 ENE 26 35 14 19 1011.8 1008.6 0.2
26/03:30am 25.6 20.4 12.8 45 7.6 ENE 32 43 17 23 1011.9 1008.7 0.2
26/03:00am 25.5 20.7 13.0 46 7.4 ENE 30 43 16 23 1011.6 1008.4 0.2
26/02:30am 25.5 19.9 13.4 47 7.2 ENE 35 48 19 26 1011.7 1008.5 0.2
26/02:17am 25.5 19.9 13.4 47 7.2 ENE 35 54 19 29 1011.6 1008.4 0.2
26/02:00am 25.4 20.3 13.6 48 7.1 ENE 33 44 18 24 1011.6 1008.4 0.2
26/01:30am 25.5 20.0 13.7 48 7.1 ENE 35 48 19 26 1011.6 1008.4 0.2
26/01:00am 26.0 18.9 13.5 46 7.5 ENE 43 63 23 34 1011.6 1008.4 0.2
26/12:55am 26.2 21.1 13.7 46 7.5 ENE 33 56 18 30 1011.7 1008.5 0.2
26/12:30am 26.0 22.2 13.5 46 7.5 ENE 26 33 14 18 1011.7 1008.5 0.2
26/12:00am 26.3 22.2 13.8 46 7.5 ENE 28 39 15 21 1011.5 1008.3 0.2
 
Date/Time
WST
Temp
°C
App
Temp
°C
Dew
Point
Rel
Hum
%
Delta-T
°C
Wind Press
QNH
hPa
Press
MSL
hPa
Rain
since 9 am
mm
Dir
 
Spd
km/h
Gust
km/h
Spd
kts
Gust
kts
25/11:30pm 26.9 22.0 13.6 44 8.0 ENE 32 44 17 24 1011.5 1008.3 0.2
25/11:14pm 27.3 22.5 14.0 44 8.1 ENE 32 54 17 29 1011.6 1008.4 0.2
25/11:00pm 27.5 21.7 13.8 43 8.3 ENE 37 52 20 28 1011.6 1008.4 0.2
25/10:30pm 28.0 22.8 14.6 44 8.2 ENE 35 59 19 32 1011.8 1008.6 0.2
25/10:12pm 29.2 24.5 14.2 40 9.2 E 32 50 17 27 1011.8 1008.6 0.2
25/10:00pm 29.4 25.0 14.0 39 9.4 E 30 41 16 22 1011.2 1008.0 0.2

Other Formats:

Comma delimited format used in spreadsheet applications
http://www.bom.gov.au/fwo/IDW60801/IDW60801.94316.axf

JavaScript Object Notation format (JSON) in row-major order
http://www.bom.gov.au/fwo/IDW60801/IDW60801.94316.json